Time;durP1;ratioP1;P1;durP2;ratioP2;P2;SDS_P1;SDS_P2;PMS_P1;PMS_P2;Temp;Humidity;BMP_temperature;BMP_pressure;BME280_temperature;BME280_humidity;BME280_pressure;Samples;Min_cycle;Max_cycle;Signal;HPM_P1;HPM_P2
2022/03/31 00:02:29;;;;;;;16.40;15.10;;;;;;;22.48;27.32;93993.53;6045181;28;103258;-63
2022/03/31 00:05:32;;;;;;;16.87;15.40;;;;;;;22.48;27.51;93998.84;6056358;28;103656;-64
2022/03/31 00:08:34;;;;;;;18.27;16.67;;;;;;;22.49;27.41;93995.06;6061216;28;103266;-63
2022/03/31 00:11:35;;;;;;;17.23;15.83;;;;;;;22.47;27.17;93983.97;6060934;28;103452;-63
2022/03/31 00:14:38;;;;;;;17.40;15.90;;;;;;;22.46;27.34;93995.75;6060516;28;103614;-64
2022/03/31 00:17:40;;;;;;;17.13;15.67;;;;;;;22.46;27.24;93994.97;6053686;28;103091;-63
2022/03/31 00:20:42;;;;;;;16.90;15.50;;;;;;;22.46;27.59;93994.97;6057972;28;104264;-63
2022/03/31 00:23:44;;;;;;;17.63;16.17;;;;;;;22.46;27.69;93995.75;6061655;28;104172;-63
2022/03/31 00:26:45;;;;;;;19.07;17.30;;;;;;;22.45;27.81;94007.53;6056418;28;103216;-64
2022/03/31 00:29:47;;;;;;;16.87;15.47;;;;;;;22.46;27.45;93998.41;6043524;28;103346;-63
2022/03/31 00:32:49;;;;;;;18.33;16.83;;;;;;;22.45;27.45;93988.84;6059940;28;103182;-63
2022/03/31 00:35:51;;;;;;;17.67;16.17;;;;;;;22.38;27.81;93959.31;6061814;28;103017;-63
2022/03/31 00:42:15;;;;;;;17.40;15.73;;;;;;;22.46;27.28;93976.31;6060935;28;103480;-63
2022/03/31 00:45:20;;;;;;;17.23;15.60;;;;;;;22.45;27.73;93956.09;6059737;28;103822;-63
2022/03/31 00:48:22;;;;;;;16.80;15.40;;;;;;;22.43;27.48;93948.44;6059133;28;104248;-63
2022/03/31 00:51:24;;;;;;;17.53;16.03;;;;;;;22.43;27.40;93943.09;6055076;28;103421;-63
2022/03/31 00:54:27;;;;;;;18.13;16.60;;;;;;;22.45;27.59;93927.53;6061172;28;102987;-63
2022/03/31 00:57:29;;;;;;;16.67;15.30;;;;;;;22.45;27.08;93954.19;6068107;28;103125;-63
2022/03/31 01:00:31;;;;;;;17.67;16.07;;;;;;;22.46;27.29;93971.75;6057212;28;103240;-63
2022/03/31 01:03:35;;;;;;;17.27;15.77;;;;;;;22.46;27.70;93958.41;6063394;28;104049;-63
2022/03/31 01:06:37;;;;;;;16.67;15.27;;;;;;;22.45;27.48;93940.09;6048578;28;103989;-63
2022/03/31 01:09:40;;;;;;;17.67;16.07;;;;;;;22.37;27.37;93934.56;6064834;28;102946;-63
2022/03/31 01:12:42;;;;;;;20.00;18.30;;;;;;;22.42;27.49;93949.53;6059413;28;103074;-63
2022/03/31 01:15:43;;;;;;;16.63;15.23;;;;;;;22.44;27.85;93936.66;6063314;28;104698;-64
2022/03/31 01:18:45;;;;;;;19.57;17.77;;;;;;;22.46;27.68;93933.66;6062043;28;103116;-63
2022/03/31 01:21:47;;;;;;;16.87;15.47;;;;;;;22.44;27.06;93910.00;6057990;28;104585;-63
2022/03/31 01:24:50;;;;;;;17.30;15.90;;;;;;;22.44;27.34;93899.34;6064406;28;103927;-63
2022/03/31 01:27:52;;;;;;;16.43;15.03;;;;;;;22.39;27.45;93921.69;6046843;28;106199;-63
2022/03/31 01:30:55;;;;;;;16.63;15.30;;;;;;;22.45;27.92;93905.44;6064136;28;103166;-64
2022/03/31 01:33:57;;;;;;;17.03;15.53;;;;;;;22.44;27.74;93888.69;6059190;28;105039;-63
2022/03/31 01:36:59;;;;;;;17.37;15.87;;;;;;;22.35;27.61;93888.81;6048386;28;103788;-63
2022/03/31 01:40:01;;;;;;;16.70;15.07;;;;;;;22.41;27.35;93911.44;6065001;28;103173;-63
2022/03/31 01:43:02;;;;;;;16.70;15.40;;;;;;;22.40;27.50;93903.78;6061425;28;102659;-62
2022/03/31 01:46:07;;;;;;;16.03;14.73;;;;;;;22.41;27.54;93921.34;6041757;28;103346;-63
2022/03/31 01:49:10;;;;;;;15.00;13.70;;;;;;;22.44;27.42;93936.66;6063006;28;104054;-63
2022/03/31 01:52:12;;;;;;;16.33;15.03;;;;;;;22.44;27.79;93912.66;6063078;28;103701;-63
2022/03/31 01:55:13;;;;;;;15.80;14.60;;;;;;;22.44;27.53;93928.66;6063338;28;102938;-63
2022/03/31 01:58:15;;;;;;;16.60;15.20;;;;;;;22.41;27.94;93919.44;6065373;28;103578;-64
2022/03/31 02:01:17;;;;;;;17.10;15.60;;;;;;;22.43;27.49;93900.44;6063715;28;102895;-64
2022/03/31 02:04:19;;;;;;;17.60;16.10;;;;;;;22.42;27.88;93902.34;6047055;28;103071;-63
2022/03/31 02:07:21;;;;;;;15.90;14.70;;;;;;;22.41;27.71;93903.44;6059208;28;104661;-63
2022/03/31 02:10:25;;;;;;;16.23;14.90;;;;;;;22.41;27.73;93906.13;6064175;28;103279;-64
2022/03/31 02:13:27;;;;;;;15.53;14.23;;;;;;;22.42;27.63;93890.91;6063227;28;103093;-63
2022/03/31 02:16:29;;;;;;;15.90;14.60;;;;;;;22.42;27.97;93902.34;6045448;28;103202;-64
2022/03/31 02:19:31;;;;;;;15.90;14.60;;;;;;;22.41;27.38;93905.34;6058461;28;104041;-63
2022/03/31 02:22:33;;;;;;;15.33;14.03;;;;;;;22.36;27.89;93901.03;6063853;28;104195;-63
2022/03/31 02:25:36;;;;;;;15.40;14.20;;;;;;;22.40;27.73;93903.78;6062484;28;103274;-63
2022/03/31 02:28:39;;;;;;;14.93;13.67;;;;;;;22.39;27.32;93880.91;6058449;28;103362;-64
2022/03/31 02:31:41;;;;;;;14.20;13.00;;;;;;;22.40;27.88;93896.56;6062887;28;102842;-62
2022/03/31 02:34:43;;;;;;;15.33;14.03;;;;;;;22.41;27.80;93895.47;6047632;28;103204;-63
2022/03/31 02:37:44;;;;;;;14.90;13.57;;;;;;;22.41;27.38;93879.47;6063149;28;104083;-63
2022/03/31 02:40:46;;;;;;;16.10;14.70;;;;;;;22.41;27.88;93878.69;6039549;28;103058;-63
2022/03/31 02:43:48;;;;;;;15.43;14.17;;;;;;;22.40;27.55;93887.81;6063149;28;103152;-62
2022/03/31 02:46:51;;;;;;;13.90;12.70;;;;;;;22.40;27.69;93877.91;6045273;28;103299;-63
2022/03/31 02:49:53;;;;;;;14.43;13.23;;;;;;;22.39;27.74;93879.03;6057098;28;103523;-63
2022/03/31 02:56:15;;;;;;;14.03;12.83;;;;;;;22.39;27.64;93859.59;6066639;28;104005;-63
2022/03/31 02:59:17;;;;;;;15.10;13.80;;;;;;;22.35;27.69;93869.38;6062506;28;103037;-63
2022/03/31 03:02:19;;;;;;;14.33;13.20;;;;;;;22.35;27.81;93872.03;6056445;28;104000;-63
2022/03/31 03:05:20;;;;;;;14.40;13.10;;;;;;;22.39;27.44;93870.25;6054832;28;103156;-63
2022/03/31 03:08:23;;;;;;;14.40;13.20;;;;;;;22.39;27.48;93843.59;6045850;28;102960;-64
2022/03/31 03:11:25;;;;;;;13.93;12.70;;;;;;;22.32;27.50;93838.03;6061319;28;103232;-63
2022/03/31 03:14:27;;;;;;;13.50;12.30;;;;;;;22.38;27.55;93852.72;6057553;28;103042;-63
2022/03/31 03:17:29;;;;;;;14.80;13.43;;;;;;;22.35;27.59;93853.38;6060078;28;103850;-63
2022/03/31 03:20:31;;;;;;;12.90;11.80;;;;;;;22.35;27.48;93859.50;6062489;28;103637;-62
2022/03/31 03:23:34;;;;;;;17.23;10.83;;;;;;;22.30;28.26;93845.59;6053302;28;103386;-63
2022/03/31 03:26:36;;;;;;;13.70;11.73;;;;;;;22.31;28.01;93839.94;6063819;28;103975;-63
2022/03/31 03:29:46;;;;;;;11.13;9.90;;;;;;;22.26;28.31;93842.06;6060121;28;103349;-63
2022/03/31 03:32:48;;;;;;;14.20;9.70;;;;;;;22.31;28.37;93853.25;6061700;28;103129;-62
2022/03/31 03:35:50;;;;;;;14.30;10.60;;;;;;;22.32;28.37;93848.69;6040345;28;103157;-64
2022/03/31 03:38:52;;;;;;;13.90;9.80;;;;;;;22.29;28.61;93841.38;6063009;28;102975;-63
2022/03/31 03:41:53;;;;;;;12.97;10.40;;;;;;;22.27;29.21;93835.63;6043329;28;104410;-63
2022/03/31 03:44:56;;;;;;;13.83;11.27;;;;;;;22.29;28.73;93825.41;6052386;28;104044;-64
2022/03/31 03:47:58;;;;;;;11.97;9.90;;;;;;;22.28;29.43;93816.63;6076156;28;102773;-64
2022/03/31 03:51:01;;;;;;;12.00;9.97;;;;;;;22.29;29.50;93818.19;6046109;28;103548;-63
2022/03/31 03:54:03;;;;;;;12.27;8.70;;;;;;;22.27;29.04;93848.94;6052951;28;104716;-64
2022/03/31 03:57:04;;;;;;;11.37;7.37;;;;;;;22.24;28.81;93829.06;6055650;28;103260;-64
2022/03/31 04:00:07;;;;;;;13.80;7.67;;;;;;;22.27;28.67;93847.06;6060598;28;103044;-62
2022/03/31 04:03:09;;;;;;;11.90;8.00;;;;;;;22.33;29.29;93842.25;6060192;28;105146;-62
2022/03/31 04:06:11;;;;;;;11.17;7.47;;;;;;;22.26;29.16;93826.06;6056999;28;103341;-62
2022/03/31 04:09:13;;;;;;;13.13;7.40;;;;;;;22.34;29.51;93843.81;6052607;28;104072;-62
2022/03/31 04:12:15;;;;;;;15.30;7.63;;;;;;;22.34;29.32;93831.25;6039630;28;103635;-63
2022/03/31 04:15:17;;;;;;;14.13;7.30;;;;;;;22.45;29.15;93852.13;6053927;28;103427;-63
2022/03/31 04:18:19;;;;;;;12.80;7.30;;;;;;;22.42;30.23;93866.91;6051658;28;104426;-64
2022/03/31 04:21:26;;;;;;;14.23;7.43;;;;;;;22.34;29.80;93857.91;6053458;28;103802;-61
2022/03/31 04:24:28;;;;;;;9.27;7.43;;;;;;;22.45;29.45;93884.13;6061594;28;103368;-63
2022/03/31 04:27:30;;;;;;;16.50;7.53;;;;;;;22.47;29.65;93898.66;6054753;28;103287;-63
2022/03/31 04:30:32;;;;;;;11.07;6.70;;;;;;;22.44;29.75;93878.00;6051337;28;103250;-64
2022/03/31 04:33:34;;;;;;;11.00;7.70;;;;;;;22.34;29.72;93855.25;6043112;28;103192;-64
2022/03/31 04:36:36;;;;;;;11.13;6.60;;;;;;;22.41;29.48;93882.13;6064869;28;104183;-64
2022/03/31 04:39:38;;;;;;;9.80;6.43;;;;;;;22.41;29.64;93897.34;6072254;28;103585;-64
2022/03/31 04:42:40;;;;;;;13.80;7.30;;;;;;;22.35;29.52;93880.81;6064824;28;104506;-63
2022/03/31 04:45:41;;;;;;;9.17;7.00;;;;;;;22.37;29.17;93875.16;6088362;28;103262;-63
2022/03/31 04:48:43;;;;;;;8.20;7.17;;;;;;;22.38;29.22;93884.69;6082308;28;103802;-63
2022/03/31 04:51:45;;;;;;;7.00;6.30;;;;;;;22.37;29.29;93873.25;6060029;28;103137;-63
2022/03/31 04:54:47;;;;;;;10.80;6.90;;;;;;;22.36;28.94;93847.72;6081612;28;103075;-63
2022/03/31 04:57:48;;;;;;;9.33;6.83;;;;;;;22.33;29.24;93860.91;6064589;28;103469;-64
2022/03/31 05:00:50;;;;;;;7.07;6.30;;;;;;;22.34;29.41;93867.78;6066110;28;104132;-64
2022/03/31 05:03:55;;;;;;;9.13;6.90;;;;;;;22.36;28.79;93887.69;6082129;28;103079;-64
2022/03/31 05:06:57;;;;;;;7.03;5.43;;;;;;;22.36;29.50;93889.59;6070784;28;103993;-63
2022/03/31 05:09:59;;;;;;;7.10;6.40;;;;;;;22.35;28.96;93880.03;6083621;28;104227;-64
2022/03/31 05:13:01;;;;;;;7.93;6.07;;;;;;;22.32;28.92;93870.03;6082908;28;103017;-64
2022/03/31 05:16:02;;;;;;;9.40;6.03;;;;;;;22.33;28.75;93888.34;6069793;28;103449;-64
2022/03/31 05:19:04;;;;;;;7.87;6.13;;;;;;;22.33;29.05;93898.22;6077392;28;103027;-63
2022/03/31 05:22:06;;;;;;;8.63;6.13;;;;;;;22.33;29.07;93901.66;6064086;28;103066;-64
2022/03/31 05:25:10;;;;;;;7.40;5.60;;;;;;;22.35;28.83;93915.47;6059581;28;103963;-63
2022/03/31 05:28:12;;;;;;;8.30;5.93;;;;;;;22.33;29.05;93924.88;6063440;28;103135;-64
2022/03/31 05:31:14;;;;;;;7.70;6.33;;;;;;;22.33;28.85;93930.22;6083312;28;103650;-64
2022/03/31 05:34:16;;;;;;;7.17;6.00;;;;;;;22.32;29.07;93923.31;6069418;28;103492;-63
2022/03/31 05:37:18;;;;;;;10.70;5.90;;;;;;;22.30;29.05;93936.22;6082846;28;104149;-64
2022/03/31 05:40:20;;;;;;;8.33;6.33;;;;;;;22.34;28.71;93945.88;6084026;28;103018;-64
2022/03/31 05:43:22;;;;;;;12.67;7.53;;;;;;;22.42;29.76;93941.56;6083000;28;103067;-63
2022/03/31 05:46:32;;;;;;;12.93;11.30;;;;;;;22.44;30.52;93947.31;6058453;28;103356;-65
2022/03/31 05:49:38;;;;;;;7.50;6.73;;;;;;;22.37;29.54;93963.88;6069935;28;103248;-64
2022/03/31 05:52:42;;;;;;;8.00;7.20;;;;;;;22.41;29.25;93958.66;6087926;28;103130;-63
2022/03/31 05:55:45;;;;;;;11.00;7.67;;;;;;;22.39;29.70;93956.31;6078728;28;103372;-64
2022/03/31 05:58:47;;;;;;;9.77;6.40;;;;;;;22.33;29.29;93962.19;6057454;28;104334;-64
2022/03/31 06:01:50;;;;;;;9.10;7.10;;;;;;;22.31;29.23;93938.53;6064767;28;103376;-63
2022/03/31 06:04:51;;;;;;;10.60;6.60;;;;;;;22.24;29.38;93927.69;6045886;28;104517;-63
2022/03/31 06:07:53;;;;;;;10.13;6.27;;;;;;;22.30;29.48;93915.66;6063432;28;103018;-63
2022/03/31 06:10:55;;;;;;;8.40;6.57;;;;;;;22.31;29.55;93925.22;6037189;28;103285;-63
2022/03/31 06:13:57;;;;;;;7.67;6.07;;;;;;;22.32;29.50;93910.00;6063721;28;105867;-64
2022/03/31 06:16:58;;;;;;;7.03;6.33;;;;;;;22.32;29.30;93899.34;6063507;28;103236;-63
2022/03/31 06:20:00;;;;;;;8.63;6.57;;;;;;;22.32;29.38;93892.13;6054964;28;103566;-63
2022/03/31 06:23:03;;;;;;;8.57;5.90;;;;;;;22.30;29.15;93875.69;6062587;28;104335;-63
2022/03/31 06:26:05;;;;;;;7.33;6.03;;;;;;;22.31;29.50;93841.81;6062603;28;104170;-63
2022/03/31 06:29:07;;;;;;;7.37;5.97;;;;;;;22.32;29.30;93870.03;6066508;28;103450;-63
2022/03/31 06:32:09;;;;;;;8.30;6.10;;;;;;;22.32;29.37;93872.69;6081837;28;103323;-64
2022/03/31 06:35:14;;;;;;;8.57;5.97;;;;;;;22.27;29.48;93891.59;6085334;28;103210;-63
2022/03/31 06:38:17;;;;;;;11.20;6.70;;;;;;;22.32;29.24;93912.66;6085684;28;103571;-64
2022/03/31 06:41:18;;;;;;;8.33;6.37;;;;;;;22.32;28.86;93920.66;6055433;28;102915;-63
2022/03/31 06:44:21;;;;;;;6.90;5.73;;;;;;;22.32;28.78;93939.31;6062292;28;104024;-63
2022/03/31 06:47:22;;;;;;;7.13;5.60;;;;;;;22.32;29.19;93923.31;6062783;28;104276;-64
2022/03/31 06:50:24;;;;;;;7.40;5.80;;;;;;;22.30;28.87;93931.66;6059145;28;104227;-63
2022/03/31 06:53:26;;;;;;;6.53;5.80;;;;;;;22.32;29.30;93918.00;6056993;28;103066;-63
2022/03/31 06:56:28;;;;;;;8.90;5.60;;;;;;;22.31;29.21;93916.44;6075475;28;104381;-63
2022/03/31 06:59:31;;;;;;;8.23;5.73;;;;;;;22.30;28.63;93913.00;6073398;28;103336;-63
2022/03/31 07:02:33;;;;;;;6.50;4.90;;;;;;;22.30;29.09;93910.34;6044918;28;102930;-63
2022/03/31 07:05:36;;;;;;;9.40;7.00;;;;;;;22.31;29.05;93922.56;6056779;28;103126;-63
2022/03/31 07:08:38;;;;;;;15.00;13.50;;;;;;;22.31;29.56;93913.78;6062665;28;103113;-64
2022/03/31 07:11:40;;;;;;;12.43;11.23;;;;;;;22.28;29.07;93911.78;6084703;28;103675;-63
2022/03/31 07:14:43;;;;;;;13.93;12.53;;;;;;;22.28;29.43;93923.22;6080681;28;103886;-63
2022/03/31 07:17:45;;;;;;;18.40;16.30;;;;;;;22.29;29.61;93910.69;6086033;28;104011;-62
2022/03/31 07:20:47;;;;;;;15.63;14.23;;;;;;;22.25;29.59;93893.81;6046758;28;103703;-64
2022/03/31 07:23:51;;;;;;;15.60;13.90;;;;;;;22.28;29.82;93885.13;6061751;28;102983;-63
2022/03/31 07:26:52;;;;;;;18.50;16.87;;;;;;;22.26;29.61;93858.81;6039072;28;104817;-64
2022/03/31 07:29:54;;;;;;;20.00;18.00;;;;;;;22.26;29.87;93872.16;6071255;28;103019;-64
2022/03/31 07:33:03;;;;;;;15.90;14.40;;;;;;;22.30;29.81;93886.34;6084916;28;103082;-62
2022/03/31 07:36:07;;;;;;;22.30;20.17;;;;;;;22.33;29.49;93890.22;6085648;28;103144;-62
2022/03/31 07:39:09;;;;;;;20.20;18.40;;;;;;;22.32;29.49;93902.00;6072191;28;103067;-62
2022/03/31 07:42:10;;;;;;;23.43;21.23;;;;;;;22.29;30.24;93878.69;6073584;28;104857;-61
2022/03/31 07:45:13;;;;;;;19.00;17.00;;;;;;;22.24;30.03;93894.91;6084585;28;103302;-64
2022/03/31 07:48:16;;;;;;;19.80;17.77;;;;;;;22.27;30.42;93910.22;6062012;28;103045;-62
2022/03/31 07:51:18;;;;;;;20.87;18.87;;;;;;;22.28;29.95;93909.13;6058311;28;103072;-61
2022/03/31 07:54:20;;;;;;;19.57;17.67;;;;;;;22.29;29.90;93873.38;6060406;28;103044;-61
2022/03/31 07:57:22;;;;;;;19.67;17.87;;;;;;;22.28;29.64;93890.47;6082822;28;104018;-62
2022/03/31 08:00:24;;;;;;;19.67;17.87;;;;;;;22.28;29.88;93871.81;6073789;28;103774;-62
2022/03/31 08:03:26;;;;;;;22.27;20.20;;;;;;;22.27;30.04;93887.03;6066642;28;104223;-62
2022/03/31 08:06:28;;;;;;;26.07;23.57;;;;;;;22.29;30.05;93887.47;6061846;28;103304;-62
2022/03/31 08:09:30;;;;;;;25.67;23.17;;;;;;;22.27;30.17;93867.59;6059231;28;104303;-62
2022/03/31 08:12:34;;;;;;;25.67;22.97;;;;;;;22.23;29.86;93850.72;6085003;28;103260;-62
2022/03/31 08:15:37;;;;;;;28.63;25.80;;;;;;;22.24;30.33;93873.59;6084864;28;103180;-62
2022/03/31 08:18:38;;;;;;;26.20;23.77;;;;;;;22.25;29.89;93907.13;6081682;28;103164;-62
2022/03/31 08:21:42;;;;;;;25.37;23.07;;;;;;;22.21;29.79;93882.28;6053654;28;105177;-61
2022/03/31 08:24:44;;;;;;;24.20;21.90;;;;;;;22.27;29.60;93839.06;6069901;28;104155;-63
2022/03/31 08:27:47;;;;;;;21.30;19.30;;;;;;;22.28;29.49;93866.47;6084630;28;102965;-61
2022/03/31 08:30:52;;;;;;;23.70;21.30;;;;;;;22.31;29.85;93847.94;6063867;28;104232;-62
2022/03/31 08:33:54;;;;;;;27.53;25.00;;;;;;;22.27;29.94;93839.06;6054949;28;103164;-61
2022/03/31 08:36:56;;;;;;;27.23;24.83;;;;;;;22.33;29.79;93842.25;6044205;28;103375;-62
2022/03/31 08:39:58;;;;;;;28.87;26.17;;;;;;;22.32;29.47;93854.03;6066361;28;103265;-62
2022/03/31 08:43:01;;;;;;;30.03;27.40;;;;;;;22.34;29.92;93862.47;6079498;28;104119;-62
2022/03/31 08:46:06;;;;;;;31.00;28.00;;;;;;;22.33;29.79;93867.03;6083620;28;103128;-61
2022/03/31 08:49:09;;;;;;;29.53;26.93;;;;;;;22.34;29.75;93847.25;6080945;28;104423;-61
2022/03/31 08:52:11;;;;;;;29.13;26.50;;;;;;;22.34;29.74;93846.47;6083762;28;103531;-63
2022/03/31 08:55:12;;;;;;;28.80;26.20;;;;;;;22.35;29.70;93861.38;6074067;28;104366;-63
2022/03/31 08:58:15;;;;;;;29.07;26.47;;;;;;;22.33;29.96;93839.59;6060861;28;104114;-62
2022/03/31 09:01:17;;;;;;;30.67;27.80;;;;;;;22.35;29.93;93838.16;6060841;28;103899;-62
2022/03/31 09:04:23;;;;;;;30.67;27.40;;;;;;;22.30;29.90;93827.72;6059715;28;103083;-64
2022/03/31 09:07:25;;;;;;;29.37;26.57;;;;;;;22.32;30.10;93806.84;6057657;28;103622;-62
2022/03/31 09:10:29;;;;;;;29.03;26.33;;;;;;;22.35;29.72;93808.06;6072209;28;103161;-62
2022/03/31 09:13:38;;;;;;;31.53;28.60;;;;;;;22.35;29.62;93816.06;6084898;28;103333;-61
2022/03/31 09:16:40;;;;;;;31.57;28.70;;;;;;;22.35;29.87;93814.19;6054679;28;103402;-61
2022/03/31 09:19:43;;;;;;;30.30;27.50;;;;;;;22.34;29.75;93814.50;6064076;28;103645;-62
2022/03/31 09:22:49;;;;;;;31.50;28.67;;;;;;;22.30;30.04;93821.63;6084505;28;106630;-62
2022/03/31 09:25:51;;;;;;;32.93;29.83;;;;;;;22.33;30.28;93816.38;6087294;28;103760;-61
2022/03/31 09:28:54;;;;;;;31.57;28.70;;;;;;;22.35;30.34;93850.72;6079178;28;103080;-62
2022/03/31 09:32:10;;;;;;;31.77;28.40;;;;;;;22.34;30.57;93841.16;6087283;28;103335;-62
2022/03/31 09:35:11;;;;;;;34.13;30.83;;;;;;;22.35;30.52;93816.06;6087362;28;103347;-61
2022/03/31 09:38:13;;;;;;;33.93;30.43;;;;;;;22.35;29.98;93800.84;6082059;28;103302;-62
2022/03/31 09:41:21;;;;;;;34.53;31.30;;;;;;;22.36;30.15;93785.63;6065848;28;103478;-63
2022/03/31 09:44:25;;;;;;;34.80;31.50;;;;;;;22.36;29.96;93777.66;6064786;28;103478;-61
2022/03/31 09:47:28;;;;;;;35.70;32.00;;;;;;;22.36;30.39;93796.31;6046483;28;103117;-64
2022/03/31 09:50:34;;;;;;;36.10;32.60;;;;;;;22.37;30.62;93779.19;6072763;28;104715;-62
2022/03/31 09:53:36;;;;;;;34.30;31.07;;;;;;;22.38;30.40;93788.75;6086910;28;104127;-62
2022/03/31 09:56:41;;;;;;;34.63;31.20;;;;;;;22.38;30.32;93808.16;6072334;28;103184;-63
2022/03/31 09:59:47;;;;;;;34.10;30.93;;;;;;;22.39;30.76;93811.63;6061809;28;104067;-62
2022/03/31 10:02:50;;;;;;;34.93;31.23;;;;;;;22.37;30.83;93809.28;6086509;28;103188;-63
2022/03/31 10:06:13;;;;;;;34.67;31.23;;;;;;;22.39;30.40;93792.97;6087231;28;103199;-62
2022/03/31 10:09:14;;;;;;;34.90;31.63;;;;;;;22.35;30.61;93776.88;6082231;28;104619;-62
2022/03/31 10:12:43;;;;;;;34.93;31.60;;;;;;;22.40;31.11;93789.19;6082427;28;103748;-63
2022/03/31 10:15:47;;;;;;;33.77;30.87;;;;;;;22.38;30.86;93772.75;6053875;28;103078;-63
2022/03/31 10:18:49;;;;;;;33.60;30.30;;;;;;;22.39;30.84;93779.63;6062058;28;104504;-63
2022/03/31 10:21:57;;;;;;;35.10;31.70;;;;;;;22.37;30.72;93771.19;6055449;28;103448;-60
2022/03/31 10:25:04;;;;;;;32.97;29.87;;;;;;;22.38;31.16;93772.75;6062709;28;103911;-60
2022/03/31 10:28:15;;;;;;;32.33;29.37;;;;;;;22.37;31.08;93755.22;6063705;28;104200;-59
2022/03/31 10:31:17;;;;;;;33.10;30.10;;;;;;;22.37;30.57;93752.53;6078684;28;104200;-63
2022/03/31 10:34:19;;;;;;;33.37;29.93;;;;;;;22.40;30.54;93744.63;6081440;28;103481;-61
2022/03/31 10:37:34;;;;;;;32.17;29.17;;;;;;;22.44;31.31;93747.41;6086724;28;102996;-61
2022/03/31 10:40:38;;;;;;;33.57;30.40;;;;;;;22.42;31.18;93741.63;6065737;28;103413;-61
2022/03/31 10:43:52;;;;;;;32.27;29.40;;;;;;;22.38;30.76;93756.75;6058992;28;104040;-61
2022/03/31 10:47:04;;;;;;;33.10;29.90;;;;;;;22.38;31.06;93733.53;6044957;28;103242;-61
2022/03/31 10:50:09;;;;;;;31.60;28.70;;;;;;;22.38;30.76;93724.78;6068041;28;104311;-61
2022/03/31 10:53:11;;;;;;;33.53;30.43;;;;;;;22.38;30.47;93724.78;6085982;28;103197;-60
2022/03/31 10:56:19;;;;;;;35.40;32.17;;;;;;;22.37;30.69;93718.66;6068775;28;103298;-61
2022/03/31 10:59:21;;;;;;;33.83;30.80;;;;;;;22.33;30.88;93701.78;6065969;28;103088;-61
2022/03/31 11:02:23;;;;;;;35.37;32.17;;;;;;;22.37;30.64;93732.00;6086398;28;104101;-60
2022/03/31 11:05:28;;;;;;;34.90;31.50;;;;;;;22.37;31.00;93728.56;6068812;28;103152;-62
2022/03/31 11:08:29;;;;;;;34.30;31.10;;;;;;;22.37;30.91;93720.56;6076899;28;103786;-62
2022/03/31 11:11:32;;;;;;;36.73;33.33;;;;;;;22.37;30.57;93731.22;6080830;28;103353;-61
2022/03/31 11:14:34;;;;;;;36.77;33.43;;;;;;;22.36;31.10;93717.13;6067880;28;103963;-61
2022/03/31 11:17:38;;;;;;;35.47;32.27;;;;;;;22.34;30.40;93735.31;6080702;28;104031;-61
2022/03/31 11:20:40;;;;;;;34.33;31.20;;;;;;;22.38;30.49;93746.88;6076049;28;104436;-61
2022/03/31 11:23:47;;;;;;;45.63;41.37;;;;;;;22.38;30.76;93722.88;6067885;28;104053;-61
2022/03/31 11:26:49;;;;;;;45.80;41.67;;;;;;;22.36;30.49;93717.13;6084953;28;104230;-61
2022/03/31 11:30:00;;;;;;;41.20;37.60;;;;;;;22.37;30.43;93724.00;6069956;28;104254;-61
2022/03/31 11:33:03;;;;;;;43.53;39.63;;;;;;;22.36;31.08;93717.13;6061803;28;102919;-64
2022/03/31 11:36:05;;;;;;;37.37;33.93;;;;;;;22.38;30.95;93740.75;6061271;28;102780;-63
2022/03/31 11:39:06;;;;;;;35.50;32.57;;;;;;;22.36;30.33;93759.75;6059747;28;104944;-65
2022/03/31 11:42:10;;;;;;;37.60;34.10;;;;;;;22.38;30.74;93754.09;6061595;28;104298;-69
2022/03/31 11:45:33;;;;;;;36.77;33.47;;;;;;;22.39;30.70;93766.31;6068032;28;103135;-69
2022/03/31 11:48:39;;;;;;;37.47;33.67;;;;;;;22.23;30.24;93696.19;6081035;28;103274;-68
2022/03/31 11:51:48;;;;;;;35.03;31.93;;;;;;;22.39;30.40;93711.09;6053768;28;102685;-67
2022/03/31 11:54:49;;;;;;;35.37;32.13;;;;;;;22.34;30.25;93710.56;6062222;28;103445;-69
2022/03/31 11:57:59;;;;;;;36.07;32.87;;;;;;;22.39;30.51;93718.31;6084530;28;102942;-68
2022/03/31 12:01:01;;;;;;;33.40;30.50;;;;;;;22.40;30.07;93709.22;6054552;28;103364;-69
2022/03/31 12:04:04;;;;;;;35.37;32.07;;;;;;;22.39;30.11;93702.34;6044057;28;103344;-66
2022/03/31 12:07:06;;;;;;;33.37;30.27;;;;;;;22.40;30.25;93678.00;6043435;28;103380;-68
2022/03/31 12:10:08;;;;;;;32.53;29.70;;;;;;;22.35;30.50;93683.59;6066748;28;102951;-68
2022/03/31 12:13:10;;;;;;;33.00;30.10;;;;;;;22.35;30.25;93661.50;6078570;28;103798;-69
2022/03/31 12:16:12;;;;;;;34.37;31.30;;;;;;;22.41;30.52;93660.88;6052773;28;103363;-65
2022/03/31 12:19:14;;;;;;;32.63;29.73;;;;;;;22.38;30.05;93631.50;6060146;28;103390;-69
2022/03/31 12:22:34;;;;;;;32.20;29.27;;;;;;;22.42;30.30;93659.78;6082968;28;103779;-69
2022/03/31 12:25:36;;;;;;;31.63;28.73;;;;;;;22.43;30.38;93636.56;6082664;28;104406;-68
2022/03/31 12:28:45;;;;;;;31.33;28.60;;;;;;;22.44;30.25;93621.34;6078513;28;103316;-69
2022/03/31 12:31:48;;;;;;;30.70;27.90;;;;;;;22.43;29.95;93620.56;6079971;28;103135;-69
2022/03/31 12:34:56;;;;;;;30.90;28.10;;;;;;;22.42;29.81;93603.78;6058249;28;106052;-68
2022/03/31 12:37:58;;;;;;;31.03;28.27;;;;;;;22.44;29.59;93616.78;6061261;28;103292;-68
2022/03/31 12:41:00;;;;;;;30.93;28.23;;;;;;;22.43;30.44;93615.22;6058838;28;104145;-68
2022/03/31 12:44:16;;;;;;;31.00;28.20;;;;;;;22.43;29.84;93612.56;6060009;28;103417;-69
2022/03/31 12:47:22;;;;;;;30.53;28.00;;;;;;;22.47;30.38;93602.00;6055244;28;103282;-69
2022/03/31 12:50:26;;;;;;;29.57;27.00;;;;;;;22.46;29.87;93587.13;6067311;28;103085;-69
2022/03/31 12:53:38;;;;;;;30.40;27.70;;;;;;;22.48;29.82;93603.53;6084524;28;103570;-68
2022/03/31 12:56:46;;;;;;;29.87;27.30;;;;;;;22.48;30.19;93598.97;6079676;28;103781;-69
2022/03/31 13:00:09;;;;;;;30.30;27.80;;;;;;;22.50;30.11;93582.63;6065066;28;103392;-69
2022/03/31 13:03:16;;;;;;;30.30;27.70;;;;;;;22.51;30.01;93600.94;6088442;28;103181;-69
2022/03/31 13:06:18;;;;;;;30.10;27.40;;;;;;;22.51;30.01;93579.63;6087220;28;104902;-69
2022/03/31 13:09:20;;;;;;;30.67;28.00;;;;;;;22.50;29.89;93594.06;6078707;28;105418;-67
2022/03/31 13:12:29;;;;;;;30.53;27.90;;;;;;;22.48;29.57;93580.31;6087557;28;103238;-68
2022/03/31 13:15:31;;;;;;;29.27;26.67;;;;;;;22.50;29.76;93579.97;6087844;28;103138;-69
2022/03/31 13:18:34;;;;;;;28.30;25.87;;;;;;;22.49;29.71;93571.19;6078488;28;103381;-68
2022/03/31 13:21:36;;;;;;;28.10;25.80;;;;;;;22.46;29.93;93579.13;6060458;28;103073;-69
2022/03/31 13:24:40;;;;;;;29.27;26.77;;;;;;;22.48;29.74;93568.88;6063736;28;103333;-69
2022/03/31 13:27:42;;;;;;;28.30;25.90;;;;;;;22.45;29.79;93567.69;6063201;28;103296;-69
2022/03/31 13:30:44;;;;;;;28.40;25.90;;;;;;;22.47;29.82;93552.13;6066425;28;102998;-69
2022/03/31 13:33:46;;;;;;;27.10;24.73;;;;;;;22.46;29.81;93573.78;6087933;28;103477;-68
2022/03/31 13:36:49;;;;;;;28.17;25.67;;;;;;;22.47;29.83;93584.09;6087353;28;103184;-69
2022/03/31 13:39:52;;;;;;;28.10;25.73;;;;;;;22.46;29.88;93568.47;6066799;28;103347;-68
2022/03/31 13:42:54;;;;;;;26.33;24.03;;;;;;;22.46;29.56;93558.56;6061250;28;103234;-69
2022/03/31 13:45:56;;;;;;;27.20;24.93;;;;;;;22.44;29.96;93565.38;6063680;28;103361;-69
2022/03/31 13:48:57;;;;;;;27.20;24.90;;;;;;;22.45;29.74;93517.03;6062602;28;103992;-68
2022/03/31 13:51:59;;;;;;;25.73;23.53;;;;;;;22.42;29.57;93504.41;6060916;28;104231;-70
2022/03/31 13:55:01;;;;;;;27.47;25.10;;;;;;;22.42;29.49;93499.84;6067890;28;104261;-69
2022/03/31 14:01:25;;;;;;;25.27;23.13;;;;;;;22.42;30.06;93533.72;6082173;28;103397;-69
2022/03/31 14:04:28;;;;;;;26.13;23.93;;;;;;;22.44;29.82;93526.16;6081886;28;104032;-69
2022/03/31 14:07:30;;;;;;;25.47;23.17;;;;;;;22.36;29.79;93508.47;6069719;28;103017;-69